Terminal Aerodrome Forecast
Issued by NWS

Home | Current Version | Previous Version | Text Only | Print | Product List | Glossary On
Versions: 1 2 3 4 5 6 7 8 9 10 11 12 13 14 15 16 17 18 19 20 21 22 23 24 25 26 27 28 29 30 31 32 33 34
000
FTUS45 KCYS 110500
TAFLAR
TAF
KLAR 110520Z 1106/1206 19006KT P6SM SCT250
     FM111800 30009KT P6SM VCTS SCT070CB BKN200
     FM112200 12010KT 5SM -TSRA BKN050CB OVC120
     FM120100 13012KT 5SM -SHRA VCTS SCT015 BKN040CB=

USA.gov is the U.S. government's official web portal to all federal, state and local government web resources and services.